createdAt,value
2019-05-18T00:04:22.406Z,19.27
2019-05-18T00:09:51.714Z,11.60
2019-05-18T00:15:20.992Z,9.50
2019-05-18T00:20:50.265Z,10.47
2019-05-18T00:26:19.560Z,8.80
2019-05-18T00:31:48.825Z,8.43
2019-05-18T00:37:18.191Z,6.77
2019-05-18T00:42:47.461Z,9.37
2019-05-18T00:48:16.726Z,7.80
2019-05-18T00:53:46.002Z,6.60
2019-05-18T00:59:16.203Z,7.83
2019-05-18T01:04:45.690Z,8.47
2019-05-18T01:10:16.416Z,11.57
2019-05-18T01:15:45.700Z,8.13
2019-05-18T01:21:14.969Z,17.83
2019-05-18T01:26:44.279Z,8.17
2019-05-18T01:32:13.574Z,5.67
2019-05-18T01:37:42.852Z,6.30
2019-05-18T01:43:12.119Z,6.80
2019-05-18T01:48:41.480Z,5.67
2019-05-18T01:54:10.749Z,6.20
2019-05-18T01:59:40.039Z,6.07
2019-05-18T02:05:12.096Z,6.23
2019-05-18T02:10:41.376Z,6.03
2019-05-18T02:16:10.663Z,5.33
2019-05-18T02:21:39.955Z,7.50
2019-05-18T02:27:09.228Z,6.17
2019-05-18T02:32:38.511Z,8.00
2019-05-18T02:38:15.171Z,5.47
2019-05-18T02:43:44.460Z,4.93
2019-05-18T02:49:13.721Z,6.67
2019-05-18T02:54:43.005Z,7.20
2019-05-18T03:00:14.147Z,6.60
2019-05-18T03:05:46.201Z,5.63
2019-05-18T03:11:17.415Z,6.87
2019-05-18T03:16:46.697Z,7.43
2019-05-18T03:22:15.976Z,5.17
2019-05-18T03:27:45.233Z,6.17
2019-05-18T03:33:14.504Z,5.13
2019-05-18T03:38:44.762Z,5.60
2019-05-18T03:44:14.930Z,7.27
2019-05-18T03:49:51.030Z,6.30
2019-05-18T03:55:22.260Z,5.13
2019-05-18T04:00:51.645Z,5.77
2019-05-18T04:06:20.894Z,5.63
2019-05-18T04:11:50.155Z,6.67
2019-05-18T04:17:19.435Z,6.50
2019-05-18T04:22:48.834Z,8.00
2019-05-18T04:28:19.104Z,6.20
2019-05-18T04:33:48.372Z,5.13
2019-05-18T04:39:17.662Z,5.80
2019-05-18T04:44:46.939Z,6.77
2019-05-18T04:50:16.456Z,7.37
2019-05-18T04:55:55.933Z,6.50
2019-05-18T05:01:25.235Z,8.90
2019-05-18T05:06:55.521Z,7.33
2019-05-18T05:12:24.795Z,5.27
2019-05-18T05:17:55.054Z,8.57
2019-05-18T05:23:24.326Z,5.60
2019-05-18T05:28:53.613Z,5.43
2019-05-18T05:34:23.829Z,6.70
2019-05-18T05:39:53.185Z,5.03
2019-05-18T05:45:22.621Z,8.27
2019-05-18T05:50:51.897Z,7.63
2019-05-18T05:56:21.179Z,7.70
2019-05-18T06:01:51.379Z,6.37
2019-05-18T06:07:20.653Z,12.00
2019-05-18T06:12:49.942Z,7.77
2019-05-18T06:18:20.137Z,10.53
2019-05-18T06:23:50.369Z,7.63
2019-05-18T06:29:20.685Z,11.40
2019-05-18T06:34:50.113Z,8.77
2019-05-18T06:40:21.322Z,9.33
2019-05-18T06:45:53.693Z,8.37
2019-05-18T06:51:22.996Z,7.73
2019-05-18T06:56:56.830Z,11.43
2019-05-18T07:02:26.099Z,9.80
2019-05-18T07:07:55.377Z,9.70
2019-05-18T07:13:24.729Z,7.07
2019-05-18T07:18:54.530Z,8.90
2019-05-18T07:24:23.936Z,9.07
2019-05-18T07:29:53.204Z,7.63
2019-05-18T07:35:22.662Z,9.83
2019-05-18T07:40:52.004Z,9.30
2019-05-18T07:46:21.292Z,10.77
2019-05-18T07:51:50.567Z,9.40
2019-05-18T07:57:19.960Z,13.23
2019-05-18T08:02:58.685Z,6.53
2019-05-18T08:08:27.971Z,10.17
2019-05-18T08:13:57.245Z,6.57
2019-05-18T08:19:26.650Z,8.30
2019-05-18T08:24:55.873Z,13.30
2019-05-18T08:30:26.181Z,6.90
2019-05-18T08:35:55.472Z,7.90
2019-05-18T08:41:25.757Z,8.50
2019-05-18T08:46:55.030Z,8.43
2019-05-18T08:52:24.318Z,8.93
2019-05-18T08:57:53.676Z,12.27
2019-05-18T09:03:22.948Z,6.70
2019-05-18T09:08:52.229Z,7.13
2019-05-18T09:14:21.513Z,6.40
2019-05-18T09:19:50.802Z,7.00
2019-05-18T09:25:20.154Z,8.70
2019-05-18T09:30:49.434Z,6.90
2019-05-18T09:36:18.734Z,5.43
2019-05-18T09:41:47.993Z,7.93
2019-05-18T09:47:17.331Z,7.63
2019-05-18T09:52:46.736Z,10.77
2019-05-18T09:58:16.970Z,8.47
2019-05-18T10:03:47.235Z,8.80
2019-05-18T10:09:16.509Z,8.63
2019-05-18T10:14:47.853Z,9.33
2019-05-18T10:20:17.347Z,13.93
2019-05-18T10:25:46.625Z,9.60
2019-05-18T10:31:15.905Z,8.67
2019-05-18T10:36:45.189Z,11.73
2019-05-18T10:42:14.497Z,8.10
2019-05-18T10:47:43.779Z,9.73
2019-05-18T10:53:27.401Z,3.33
2019-05-18T10:58:44.043Z,3.33
2019-05-18T11:04:13.316Z,4.13
2019-05-18T11:09:42.616Z,5.63
2019-05-18T11:15:14.542Z,4.40
2019-05-18T11:20:43.814Z,6.83
2019-05-18T11:26:13.095Z,6.80
2019-05-18T11:31:42.368Z,9.50
2019-05-18T11:37:11.650Z,4.30
2019-05-18T11:42:40.936Z,4.03
2019-05-18T11:48:10.245Z,3.70
2019-05-18T11:53:39.534Z,3.60
2019-05-18T11:59:08.814Z,5.33
2019-05-18T12:04:38.105Z,3.80
2019-05-18T12:10:10.938Z,4.47
2019-05-18T12:15:40.242Z,4.87
2019-05-18T12:21:09.519Z,3.73
2019-05-18T12:26:38.797Z,4.90
2019-05-18T12:32:08.064Z,6.23
2019-05-18T12:37:37.340Z,5.50
2019-05-18T12:43:06.628Z,3.20
2019-05-18T12:48:35.909Z,2.67
2019-05-18T12:54:05.251Z,1.70
2019-05-18T12:59:34.525Z,1.40
2019-05-18T13:05:05.544Z,2.70
2019-05-18T13:10:34.858Z,1.63
2019-05-18T13:16:04.174Z,1.90
2019-05-18T13:21:33.446Z,1.63
2019-05-18T13:27:02.724Z,2.57
2019-05-18T13:32:31.996Z,1.30
2019-05-18T13:38:01.282Z,2.63
2019-05-18T13:43:30.583Z,2.17
2019-05-18T13:48:59.833Z,1.67
2019-05-18T13:54:29.154Z,4.87
2019-05-18T13:59:58.440Z,2.83
2019-05-18T14:05:27.716Z,6.17
2019-05-18T14:10:58.675Z,1.87
2019-05-18T14:16:27.957Z,2.07
2019-05-18T14:21:57.239Z,1.40
2019-05-18T14:27:26.536Z,1.17
2019-05-18T14:32:55.813Z,2.60
2019-05-18T14:38:25.132Z,1.40
2019-05-18T14:43:56.092Z,2.13
2019-05-18T14:49:25.368Z,1.60
2019-05-18T14:54:54.639Z,1.73
2019-05-18T15:00:23.992Z,2.27
2019-05-18T15:05:53.284Z,1.43
2019-05-18T15:11:22.566Z,2.07
2019-05-18T15:16:53.035Z,1.70
2019-05-18T15:22:22.433Z,1.90
2019-05-18T15:27:51.737Z,2.50
2019-05-18T15:33:21.053Z,4.23
2019-05-18T15:38:50.679Z,1.73
2019-05-18T15:44:19.929Z,1.93
2019-05-18T15:49:49.213Z,13.33
2019-05-18T15:55:18.703Z,4.23
2019-05-18T16:00:55.343Z,1.97
2019-05-18T16:06:20.164Z,2.53
2019-05-18T16:11:49.463Z,1.50
2019-05-18T16:17:18.731Z,1.67
2019-05-18T16:22:48.000Z,4.20
2019-05-18T16:28:17.321Z,1.30
2019-05-18T16:33:46.567Z,1.50
2019-05-18T16:39:15.834Z,3.40
2019-05-18T16:44:45.126Z,2.50
2019-05-18T16:50:14.935Z,2.43
2019-05-18T16:55:44.254Z,1.53
2019-05-18T17:01:13.533Z,3.00
2019-05-18T17:06:43.604Z,2.30
2019-05-18T17:12:12.893Z,5.13
2019-05-18T17:17:47.406Z,4.43
2019-05-18T17:23:16.737Z,4.87
2019-05-18T17:28:46.033Z,1.20
2019-05-18T17:34:15.328Z,1.63
2019-05-18T17:39:44.577Z,1.93
2019-05-18T17:45:14.335Z,1.40
2019-05-18T17:50:43.615Z,1.53
2019-05-18T17:56:13.867Z,1.40
2019-05-18T18:01:43.603Z,1.60
2019-05-18T18:07:14.111Z,3.10
2019-05-18T18:12:43.437Z,2.67
2019-05-18T18:18:13.467Z,2.60
2019-05-18T18:23:42.870Z,5.80
2019-05-18T18:29:12.185Z,3.00
2019-05-18T18:34:41.540Z,5.93
2019-05-18T18:40:11.067Z,2.10
2019-05-18T18:45:40.486Z,5.73
2019-05-18T18:51:18.037Z,5.03
2019-05-18T18:56:49.299Z,4.43
2019-05-18T19:02:19.634Z,5.50
2019-05-18T19:07:48.888Z,3.80
2019-05-18T19:13:18.168Z,3.70
2019-05-18T19:18:47.469Z,4.30
2019-05-18T19:24:16.753Z,3.27
2019-05-18T19:29:46.049Z,6.57
2019-05-18T19:35:15.577Z,6.77
2019-05-18T19:40:45.172Z,6.87
2019-05-18T19:46:14.520Z,4.83
2019-05-18T19:51:44.732Z,5.00
2019-05-18T19:57:14.090Z,6.10
2019-05-18T20:02:45.272Z,5.50
2019-05-18T20:08:14.511Z,7.40
2019-05-18T20:13:43.805Z,4.70
2019-05-18T20:19:13.107Z,7.50
2019-05-18T20:24:42.385Z,8.80
2019-05-18T20:30:12.272Z,6.93
2019-05-18T20:35:41.869Z,5.73
2019-05-18T20:41:14.138Z,6.87
2019-05-18T20:46:45.041Z,6.40
2019-05-18T20:52:14.321Z,7.43
2019-05-18T20:57:43.593Z,11.10
2019-05-18T21:03:12.889Z,9.10
2019-05-18T21:08:42.160Z,6.73
2019-05-18T21:14:11.519Z,10.07
2019-05-18T21:19:40.803Z,10.93
2019-05-18T21:25:10.221Z,6.83
2019-05-18T21:30:40.539Z,10.73
2019-05-18T21:36:12.858Z,10.43
2019-05-18T21:41:42.147Z,11.17
2019-05-18T21:47:11.509Z,12.40
2019-05-18T21:52:42.111Z,15.60
2019-05-18T21:58:12.354Z,12.47
2019-05-18T22:03:45.819Z,9.03
2019-05-18T22:09:12.900Z,11.20
2019-05-18T22:14:43.105Z,11.07
2019-05-18T22:20:12.459Z,8.57
2019-05-18T22:25:41.755Z,12.93
2019-05-18T22:31:11.038Z,13.40
2019-05-18T22:36:42.027Z,12.83
2019-05-18T22:42:11.281Z,14.23
2019-05-18T22:47:40.556Z,16.53
2019-05-18T22:53:09.989Z,19.13
2019-05-18T22:58:40.230Z,15.97
2019-05-18T23:04:09.517Z,14.03
2019-05-18T23:09:38.796Z,11.60
2019-05-18T23:15:11.288Z,12.70
2019-05-18T23:20:40.574Z,16.30
2019-05-18T23:26:11.652Z,15.60
2019-05-18T23:31:40.948Z,17.50
2019-05-18T23:37:10.223Z,15.80
2019-05-18T23:42:40.481Z,12.10
2019-05-18T23:48:09.845Z,13.73
2019-05-18T23:53:39.124Z,12.60
2019-05-18T23:59:08.399Z,13.80
